createdAt,value
2023-04-15T00:01:10.858Z,6.35
2023-04-15T00:03:37.738Z,6.39
2023-04-15T00:06:04.543Z,6.32
2023-04-15T00:08:31.267Z,6.35
2023-04-15T00:11:03.070Z,6.29
2023-04-15T00:13:29.816Z,6.33
2023-04-15T00:15:56.522Z,6.23
2023-04-15T00:18:23.942Z,6.19
2023-04-15T00:20:50.726Z,6.22
2023-04-15T00:23:17.311Z,6.30
2023-04-15T00:25:43.926Z,6.21
2023-04-15T00:28:10.588Z,6.20
2023-04-15T00:30:37.685Z,6.28
2023-04-15T00:33:04.303Z,6.27
2023-04-15T00:35:33.081Z,6.25
2023-04-15T00:38:00.071Z,6.20
2023-04-15T00:40:27.998Z,6.21
2023-04-15T00:42:54.706Z,6.26
2023-04-15T00:45:21.469Z,6.25
2023-04-15T00:47:48.373Z,6.25
2023-04-15T00:50:15.265Z,6.25
2023-04-15T00:52:42.049Z,6.23
2023-04-15T00:55:09.818Z,6.22
2023-04-15T00:57:36.597Z,6.24
2023-04-15T01:00:05.040Z,6.26
2023-04-15T01:02:33.004Z,6.24
2023-04-15T01:05:02.586Z,6.29
2023-04-15T01:07:29.220Z,6.28
2023-04-15T01:09:55.914Z,6.24
2023-04-15T01:12:23.322Z,6.30
2023-04-15T01:14:49.987Z,6.37
2023-04-15T01:17:16.731Z,6.41
2023-04-15T01:19:43.454Z,6.42
2023-04-15T01:22:10.454Z,6.34
2023-04-15T01:24:37.983Z,6.35
2023-04-15T01:27:07.906Z,6.39
2023-04-15T01:29:38.643Z,6.38
2023-04-15T01:32:05.943Z,6.39
2023-04-15T01:34:35.044Z,6.49
2023-04-15T01:37:02.283Z,6.43
2023-04-15T01:39:29.042Z,6.43
2023-04-15T01:41:55.619Z,6.35
2023-04-15T01:44:22.845Z,6.28
2023-04-15T01:46:49.587Z,6.36
2023-04-15T01:49:16.482Z,6.27
2023-04-15T01:51:43.022Z,6.34
2023-04-15T01:54:09.599Z,6.29
2023-04-15T01:56:36.164Z,6.25
2023-04-15T01:59:04.097Z,6.27
2023-04-15T02:01:30.711Z,6.24
2023-04-15T02:03:57.457Z,6.33
2023-04-15T02:06:24.656Z,6.32
2023-04-15T02:08:51.186Z,6.33
2023-04-15T02:11:17.768Z,6.31
2023-04-15T02:13:44.451Z,6.36
2023-04-15T02:16:18.387Z,6.29
2023-04-15T02:18:47.347Z,6.36
2023-04-15T02:21:15.079Z,6.31
2023-04-15T02:23:41.705Z,6.30
2023-04-15T02:26:08.370Z,6.35
2023-04-15T02:28:35.065Z,6.38
2023-04-15T02:31:06.636Z,6.35
2023-04-15T02:33:33.580Z,6.35
2023-04-15T02:36:00.193Z,6.30
2023-04-15T02:38:26.738Z,6.34
2023-04-15T02:40:53.618Z,6.20
2023-04-15T02:43:20.432Z,6.26
2023-04-15T02:45:47.412Z,6.22
2023-04-15T02:48:14.072Z,6.23
2023-04-15T02:50:41.593Z,6.24
2023-04-15T02:53:08.146Z,6.23
2023-04-15T02:55:34.852Z,6.16
2023-04-15T02:58:02.004Z,6.13
2023-04-15T03:00:28.565Z,6.15
2023-04-15T03:03:01.366Z,6.12
2023-04-15T03:05:28.330Z,6.00
2023-04-15T03:07:55.001Z,5.97
2023-04-15T03:10:22.134Z,5.95
2023-04-15T03:12:48.968Z,6.03
2023-04-15T03:15:15.797Z,5.99
2023-04-15T03:17:42.591Z,5.92
2023-04-15T03:20:10.018Z,5.87
2023-04-15T03:22:36.636Z,5.78
2023-04-15T03:25:03.263Z,5.74
2023-04-15T03:27:30.501Z,5.64
2023-04-15T03:29:57.361Z,5.66
2023-04-15T03:32:23.907Z,5.62
2023-04-15T03:34:50.788Z,5.58
2023-04-15T03:37:17.623Z,5.54
2023-04-15T03:39:44.149Z,5.50
2023-04-15T03:42:11.230Z,5.54
2023-04-15T03:44:38.529Z,5.48
2023-04-15T03:47:05.144Z,5.57
2023-04-15T03:49:31.735Z,5.61
2023-04-15T03:51:58.610Z,5.58
2023-04-15T03:54:25.174Z,5.52
2023-04-15T03:56:51.723Z,5.48
2023-04-15T03:59:18.316Z,5.51
2023-04-15T04:01:44.965Z,5.43
2023-04-15T04:04:11.755Z,5.49
2023-04-15T04:06:38.480Z,5.54
2023-04-15T04:09:05.168Z,5.48
2023-04-15T04:11:31.915Z,5.54
2023-04-15T04:13:58.754Z,5.56
2023-04-15T04:16:25.776Z,5.55
2023-04-15T04:18:52.479Z,5.56
2023-04-15T04:21:19.408Z,5.47
2023-04-15T04:23:46.032Z,5.45
2023-04-15T04:26:12.722Z,5.51
2023-04-15T04:28:41.966Z,5.54
2023-04-15T04:31:08.541Z,5.64
2023-04-15T04:33:35.212Z,5.63
2023-04-15T04:36:02.070Z,5.67
2023-04-15T04:38:28.607Z,5.64
2023-04-15T04:40:55.547Z,5.59
2023-04-15T04:43:22.163Z,5.63
2023-04-15T04:45:48.786Z,5.66
2023-04-15T04:48:15.642Z,5.68
2023-04-15T04:50:42.526Z,5.70
2023-04-15T04:53:09.143Z,5.75
2023-04-15T04:55:37.225Z,5.78
2023-04-15T04:58:03.813Z,5.77
2023-04-15T05:00:30.813Z,5.82
2023-04-15T05:02:57.751Z,5.93
2023-04-15T05:05:24.598Z,5.97
2023-04-15T05:07:51.498Z,6.00
2023-04-15T05:10:18.979Z,5.95
2023-04-15T05:12:45.858Z,6.06
2023-04-15T05:15:12.467Z,6.06
2023-04-15T05:17:39.142Z,6.10
2023-04-15T05:20:06.353Z,6.12
2023-04-15T05:22:33.031Z,6.14
2023-04-15T05:24:59.814Z,6.07
2023-04-15T05:27:26.764Z,6.03
2023-04-15T05:29:53.641Z,6.05
2023-04-15T05:32:20.287Z,6.17
2023-04-15T05:34:47.206Z,6.12
2023-04-15T05:37:13.754Z,6.23
2023-04-15T05:39:40.372Z,6.21
2023-04-15T05:42:07.413Z,6.21
2023-04-15T05:44:34.011Z,6.29
2023-04-15T05:47:00.938Z,6.23
2023-04-15T05:49:27.732Z,6.38
2023-04-15T05:51:54.333Z,6.26
2023-04-15T05:54:22.951Z,6.23
2023-04-15T05:56:49.620Z,6.16
2023-04-15T05:59:17.450Z,6.15
2023-04-15T06:01:44.140Z,6.12
2023-04-15T06:04:11.749Z,6.12
2023-04-15T06:06:38.586Z,6.18
2023-04-15T06:09:05.625Z,6.14
2023-04-15T06:11:33.967Z,6.22
2023-04-15T06:14:00.587Z,6.25
2023-04-15T06:16:27.779Z,6.22
2023-04-15T06:18:54.361Z,6.30
2023-04-15T06:21:21.120Z,6.43
2023-04-15T06:23:47.739Z,6.51
2023-04-15T06:26:14.269Z,6.48
2023-04-15T06:28:40.924Z,6.58
2023-04-15T06:31:07.469Z,6.66
2023-04-15T06:33:34.021Z,6.89
2023-04-15T06:36:00.875Z,6.92
2023-04-15T06:38:27.478Z,7.05
2023-04-15T06:40:54.057Z,7.09
2023-04-15T06:43:21.011Z,7.06
2023-04-15T06:45:47.888Z,7.15
2023-04-15T06:48:14.542Z,7.29
2023-04-15T06:50:41.524Z,7.45
2023-04-15T06:53:08.100Z,7.52
2023-04-15T06:55:34.699Z,7.68
2023-04-15T06:58:01.289Z,7.81
2023-04-15T07:00:28.827Z,7.85
2023-04-15T07:02:55.924Z,8.01
2023-04-15T07:05:22.615Z,8.15
2023-04-15T07:07:49.282Z,8.09
2023-04-15T07:10:17.639Z,8.10
2023-04-15T07:12:44.187Z,8.22
2023-04-15T07:15:11.201Z,8.17
2023-04-15T07:17:37.801Z,8.18
2023-04-15T07:20:05.140Z,8.19
2023-04-15T07:22:31.912Z,8.27
2023-04-15T07:24:58.615Z,8.25
2023-04-15T07:27:25.579Z,8.31
2023-04-15T07:29:52.448Z,8.31
2023-04-15T07:32:19.773Z,8.38
2023-04-15T07:34:46.472Z,8.48
2023-04-15T07:37:14.162Z,8.41
2023-04-15T07:39:40.926Z,8.42
2023-04-15T07:42:07.631Z,8.44
2023-04-15T07:44:34.594Z,8.55
2023-04-15T07:47:03.091Z,8.39
2023-04-15T07:49:29.640Z,8.24
2023-04-15T07:51:58.025Z,8.23
2023-04-15T07:54:24.776Z,8.16
2023-04-15T07:56:51.515Z,8.30
2023-04-15T07:59:18.277Z,8.14
2023-04-15T08:01:45.358Z,8.19
2023-04-15T08:04:12.424Z,8.16
2023-04-15T08:06:40.150Z,8.06
2023-04-15T08:09:08.327Z,7.96
2023-04-15T08:11:35.051Z,8.01
2023-04-15T08:14:02.590Z,7.76
2023-04-15T08:16:29.773Z,7.94
2023-04-15T08:18:57.029Z,7.94
2023-04-15T08:21:24.032Z,8.25
2023-04-15T08:23:52.380Z,8.15
2023-04-15T08:26:21.184Z,8.06
2023-04-15T08:28:48.935Z,8.08
2023-04-15T08:31:17.571Z,8.31
2023-04-15T08:33:44.383Z,8.43
2023-04-15T08:36:10.916Z,8.39
2023-04-15T08:38:37.989Z,8.50
2023-04-15T08:41:11.021Z,8.21
2023-04-15T08:43:48.727Z,8.33
2023-04-15T08:46:15.777Z,8.53
2023-04-15T08:48:43.194Z,8.64
2023-04-15T08:51:11.050Z,8.64
2023-04-15T08:53:37.827Z,8.95
2023-04-15T08:56:06.305Z,8.84
2023-04-15T08:58:33.596Z,9.12
2023-04-15T09:01:00.541Z,9.00
2023-04-15T09:03:28.447Z,9.40
2023-04-15T09:05:55.225Z,9.49
2023-04-15T09:08:22.301Z,9.65
2023-04-15T09:10:49.112Z,9.71
2023-04-15T09:13:15.975Z,10.05
2023-04-15T09:15:43.086Z,10.11
2023-04-15T09:18:13.388Z,10.32
2023-04-15T09:20:44.475Z,10.68
2023-04-15T09:23:15.404Z,10.70
2023-04-15T09:25:42.728Z,10.87
2023-04-15T09:28:09.624Z,11.13
2023-04-15T09:30:37.112Z,10.88
2023-04-15T09:33:08.624Z,10.97
2023-04-15T09:35:38.415Z,11.09
2023-04-15T09:38:07.561Z,11.26
2023-04-15T09:40:39.051Z,10.62
2023-04-15T09:43:06.987Z,10.76
2023-04-15T09:45:35.562Z,10.81
2023-04-15T09:48:15.953Z,10.94
2023-04-15T09:50:43.229Z,10.60
2023-04-15T09:53:13.995Z,10.79
2023-04-15T09:55:45.580Z,10.40
2023-04-15T09:58:22.187Z,10.60
2023-04-15T10:00:50.594Z,10.58
2023-04-15T10:03:22.815Z,10.37
2023-04-15T10:05:52.175Z,10.15
2023-04-15T10:08:20.815Z,10.24
2023-04-15T10:10:48.780Z,10.06
2023-04-15T10:13:18.832Z,10.25
2023-04-15T10:15:50.666Z,10.16
2023-04-15T10:18:19.962Z,10.41
2023-04-15T10:20:47.011Z,10.38
2023-04-15T10:23:13.840Z,10.56
2023-04-15T10:25:40.910Z,10.38
2023-04-15T10:28:09.056Z,10.32
2023-04-15T10:30:37.121Z,10.19
2023-04-15T10:33:05.492Z,10.17
2023-04-15T10:35:34.409Z,10.16
2023-04-15T10:38:01.305Z,10.03
2023-04-15T10:40:31.933Z,10.21
2023-04-15T10:43:02.819Z,10.28
2023-04-15T10:45:34.299Z,10.15
2023-04-15T10:48:07.789Z,10.26
2023-04-15T10:50:34.594Z,10.31
2023-04-15T10:53:04.329Z,10.30
2023-04-15T10:55:35.033Z,10.28
2023-04-15T10:58:02.861Z,10.32
2023-04-15T11:00:31.894Z,10.39
2023-04-15T11:03:09.468Z,10.32
2023-04-15T11:05:42.704Z,10.40
2023-04-15T11:08:10.954Z,10.36
2023-04-15T11:10:37.485Z,10.40
2023-04-15T11:13:27.466Z,10.38
2023-04-15T11:15:58.447Z,10.38
2023-04-15T11:18:28.707Z,10.39
2023-04-15T11:20:59.553Z,10.35
2023-04-15T11:23:49.740Z,10.37
2023-04-15T11:26:16.420Z,10.44
2023-04-15T11:28:45.283Z,10.44
2023-04-15T11:31:17.110Z,10.41
2023-04-15T11:33:55.715Z,10.31
2023-04-15T11:36:27.323Z,10.53
2023-04-15T11:38:54.039Z,10.34
2023-04-15T11:41:24.180Z,10.37
2023-04-15T11:43:51.780Z,10.60
2023-04-15T11:46:18.974Z,10.63
2023-04-15T11:48:47.196Z,10.51
2023-04-15T11:51:14.629Z,10.59
2023-04-15T11:53:49.428Z,10.72
2023-04-15T11:56:23.092Z,10.50
2023-04-15T11:58:53.455Z,10.47
2023-04-15T12:01:20.113Z,10.23
2023-04-15T12:03:49.269Z,10.21
2023-04-15T12:06:31.677Z,10.17
2023-04-15T12:09:07.015Z,10.05
2023-04-15T12:11:38.124Z,10.05
2023-04-15T12:14:11.090Z,9.85
2023-04-15T12:16:51.809Z,9.80
2023-04-15T12:19:26.799Z,9.67
2023-04-15T12:22:00.468Z,9.49
2023-04-15T12:24:32.355Z,9.52
2023-04-15T12:27:08.555Z,9.26
2023-04-15T12:29:36.868Z,9.12
2023-04-15T12:32:16.739Z,9.16
2023-04-15T12:34:54.573Z,9.19
2023-04-15T12:37:21.943Z,9.04
2023-04-15T12:39:50.270Z,8.98
2023-04-15T12:42:18.152Z,9.00
2023-04-15T12:44:44.712Z,8.95
2023-04-15T12:47:12.522Z,8.98
2023-04-15T12:49:40.162Z,8.87
2023-04-15T12:52:06.947Z,9.00
2023-04-15T12:54:34.671Z,9.19
2023-04-15T12:57:01.343Z,9.08
2023-04-15T12:59:28.574Z,8.99
2023-04-15T13:01:55.643Z,8.70
2023-04-15T13:04:22.672Z,8.83
2023-04-15T13:06:49.704Z,8.65
2023-04-15T13:09:16.682Z,8.75
2023-04-15T13:11:43.449Z,8.72
2023-04-15T13:14:14.051Z,8.55
2023-04-15T13:16:41.074Z,8.51
2023-04-15T13:19:07.971Z,8.58
2023-04-15T13:21:36.353Z,8.46
2023-04-15T13:24:04.896Z,8.66
2023-04-15T13:26:32.292Z,8.75
2023-04-15T13:28:59.330Z,8.48
2023-04-15T13:31:26.446Z,8.34
2023-04-15T13:33:53.193Z,8.63
2023-04-15T13:36:19.755Z,8.58
2023-04-15T13:38:47.121Z,8.46
2023-04-15T13:41:14.595Z,8.67
2023-04-15T13:43:41.860Z,8.24
2023-04-15T13:46:08.954Z,8.42
2023-04-15T13:48:35.741Z,8.68
2023-04-15T13:51:02.550Z,8.52
2023-04-15T13:53:38.319Z,8.36
2023-04-15T13:56:07.626Z,8.36
2023-04-15T13:58:34.409Z,8.01
2023-04-15T14:01:03.212Z,8.14
2023-04-15T14:03:30.746Z,8.10
2023-04-15T14:05:58.250Z,8.23
2023-04-15T14:08:25.836Z,8.03
2023-04-15T14:10:52.504Z,8.10
2023-04-15T14:13:22.524Z,7.98
2023-04-15T14:15:49.358Z,8.06
2023-04-15T14:18:16.008Z,8.10
2023-04-15T14:20:42.535Z,8.17
2023-04-15T14:23:09.090Z,7.96
2023-04-15T14:25:35.590Z,8.14
2023-04-15T14:28:03.569Z,8.16
2023-04-15T14:30:30.737Z,8.18
2023-04-15T14:32:57.671Z,8.15
2023-04-15T14:35:26.869Z,8.15
2023-04-15T14:37:54.210Z,8.16
2023-04-15T14:40:20.910Z,8.25
2023-04-15T14:42:47.496Z,8.23
2023-04-15T14:45:14.092Z,8.20
2023-04-15T14:47:41.296Z,8.24
2023-04-15T14:50:08.320Z,8.28
2023-04-15T14:52:38.870Z,8.30
2023-04-15T14:55:12.865Z,8.37
2023-04-15T14:57:40.858Z,8.12
2023-04-15T15:00:10.204Z,8.30
2023-04-15T15:02:39.717Z,8.05
2023-04-15T15:05:09.003Z,8.18
2023-04-15T15:07:37.397Z,8.21
2023-04-15T15:10:04.837Z,8.21
2023-04-15T15:12:31.679Z,8.33
2023-04-15T15:14:58.535Z,8.35
2023-04-15T15:17:25.148Z,8.21
2023-04-15T15:19:51.874Z,8.34
2023-04-15T15:22:20.851Z,8.37
2023-04-15T15:24:48.019Z,8.34
2023-04-15T15:27:15.131Z,8.38
2023-04-15T15:29:41.737Z,8.29
2023-04-15T15:32:08.437Z,8.32
2023-04-15T15:34:35.023Z,8.21
2023-04-15T15:37:03.885Z,8.21
2023-04-15T15:39:30.574Z,8.17
2023-04-15T15:41:57.358Z,8.18
2023-04-15T15:44:23.936Z,8.21
2023-04-15T15:46:51.276Z,8.27
2023-04-15T15:49:18.074Z,8.27
2023-04-15T15:51:47.612Z,8.20
2023-04-15T15:54:14.370Z,8.22
2023-04-15T15:56:42.256Z,7.98
2023-04-15T15:59:08.813Z,7.99
2023-04-15T16:01:36.412Z,8.01
2023-04-15T16:04:03.318Z,7.95
2023-04-15T16:06:30.043Z,7.97
2023-04-15T16:08:56.551Z,7.94
2023-04-15T16:11:23.546Z,7.89
2023-04-15T16:13:50.104Z,7.91
2023-04-15T16:16:16.776Z,7.93
2023-04-15T16:18:43.304Z,7.95
2023-04-15T16:21:09.911Z,7.98
2023-04-15T16:23:37.176Z,7.80
2023-04-15T16:26:03.950Z,7.74
2023-04-15T16:28:30.613Z,7.96
2023-04-15T16:30:57.345Z,7.96
2023-04-15T16:33:24.018Z,8.00
2023-04-15T16:35:51.545Z,7.83
2023-04-15T16:38:18.247Z,7.90
2023-04-15T16:40:44.791Z,7.94
2023-04-15T16:43:11.581Z,7.89
2023-04-15T16:45:38.737Z,7.91
2023-04-15T16:48:05.626Z,7.88
2023-04-15T16:50:32.314Z,7.69
2023-04-15T16:52:58.838Z,7.67
2023-04-15T16:55:25.473Z,7.79
2023-04-15T16:58:01.977Z,7.72
2023-04-15T17:00:30.494Z,7.74
2023-04-15T17:02:57.368Z,7.71
2023-04-15T17:05:24.164Z,7.71
2023-04-15T17:07:50.776Z,7.67
2023-04-15T17:10:17.483Z,7.54
2023-04-15T17:12:44.064Z,7.57
2023-04-15T17:15:10.606Z,7.52
2023-04-15T17:17:37.244Z,7.44
2023-04-15T17:20:04.310Z,7.45
2023-04-15T17:22:30.957Z,7.48
2023-04-15T17:24:57.498Z,7.51
2023-04-15T17:27:24.869Z,7.45
2023-04-15T17:29:51.528Z,7.47
2023-04-15T17:32:18.198Z,7.55
2023-04-15T17:34:49.914Z,7.50
2023-04-15T17:37:18.305Z,7.57
2023-04-15T17:39:45.018Z,7.57
2023-04-15T17:42:11.890Z,7.34
2023-04-15T17:44:38.450Z,7.47
2023-04-15T17:47:05.395Z,7.48
2023-04-15T17:49:34.230Z,7.47
2023-04-15T17:52:00.808Z,7.46
2023-04-15T17:54:27.392Z,7.45
2023-04-15T17:56:54.074Z,7.51
2023-04-15T17:59:20.619Z,7.36
2023-04-15T18:01:47.170Z,7.47
2023-04-15T18:04:13.930Z,7.44
2023-04-15T18:06:40.649Z,7.46
2023-04-15T18:09:07.539Z,7.41
2023-04-15T18:11:34.053Z,7.41
2023-04-15T18:14:03.211Z,7.40
2023-04-15T18:16:30.213Z,7.35
2023-04-15T18:18:56.747Z,7.43
2023-04-15T18:21:23.263Z,7.47
2023-04-15T18:23:49.784Z,7.38
2023-04-15T18:26:16.363Z,7.39
2023-04-15T18:28:42.976Z,7.43
2023-04-15T18:31:09.592Z,7.37
2023-04-15T18:33:36.192Z,7.39
2023-04-15T18:36:02.772Z,7.51
2023-04-15T18:38:29.350Z,7.47
2023-04-15T18:40:56.197Z,7.44
2023-04-15T18:43:22.695Z,7.38
2023-04-15T18:45:49.370Z,7.40
2023-04-15T18:48:16.109Z,7.50
2023-04-15T18:50:43.527Z,7.45
2023-04-15T18:53:10.068Z,7.45
2023-04-15T18:55:36.737Z,7.29
2023-04-15T18:58:06.417Z,7.39
2023-04-15T19:00:36.611Z,7.48
2023-04-15T19:03:03.294Z,7.44
2023-04-15T19:05:30.785Z,7.50
2023-04-15T19:07:59.169Z,7.24
2023-04-15T19:10:28.125Z,7.30
2023-04-15T19:12:55.564Z,7.41
2023-04-15T19:15:22.258Z,7.43
2023-04-15T19:17:48.965Z,7.42
2023-04-15T19:20:15.964Z,7.47
2023-04-15T19:22:43.243Z,7.41
2023-04-15T19:25:09.966Z,7.44
2023-04-15T19:27:38.386Z,7.43
2023-04-15T19:30:06.520Z,7.50
2023-04-15T19:32:33.183Z,7.45
2023-04-15T19:34:59.966Z,7.42
2023-04-15T19:37:26.518Z,7.43
2023-04-15T19:39:54.766Z,7.47
2023-04-15T19:42:21.508Z,7.48
2023-04-15T19:44:48.034Z,7.49
2023-04-15T19:47:14.613Z,7.41
2023-04-15T19:49:41.240Z,7.41
2023-04-15T19:52:07.777Z,7.37
2023-04-15T19:54:34.286Z,7.38
2023-04-15T19:57:02.181Z,7.43
2023-04-15T19:59:28.822Z,7.34
2023-04-15T20:01:55.492Z,7.35
2023-04-15T20:04:22.932Z,7.27
2023-04-15T20:06:49.891Z,7.37
2023-04-15T20:09:16.694Z,7.26
2023-04-15T20:12:46.818Z,7.29
2023-04-15T20:14:29.968Z,7.30
2023-04-15T20:16:56.484Z,7.23
2023-04-15T20:19:23.000Z,7.13
2023-04-15T20:21:50.849Z,7.20
2023-04-15T20:24:20.352Z,7.12
2023-04-15T20:26:47.225Z,7.24
2023-04-15T20:29:13.998Z,7.17
2023-04-15T20:31:40.723Z,7.18
2023-04-15T20:34:08.837Z,7.16
2023-04-15T20:36:37.411Z,7.15
2023-04-15T20:39:04.280Z,7.15
2023-04-15T20:41:31.072Z,7.11
2023-04-15T20:43:57.679Z,7.12
2023-04-15T20:46:26.688Z,7.12
2023-04-15T20:48:54.047Z,7.03
2023-04-15T20:51:20.735Z,7.03
2023-04-15T20:53:47.235Z,7.14
2023-04-15T20:56:16.175Z,7.05
2023-04-15T20:58:42.663Z,7.05
2023-04-15T21:01:09.294Z,7.06
2023-04-15T21:03:35.904Z,7.12
2023-04-15T21:06:02.636Z,6.98
2023-04-15T21:08:30.453Z,7.08
2023-04-15T21:10:57.521Z,7.12
2023-04-15T21:13:24.271Z,7.05
2023-04-15T21:15:53.496Z,7.11
2023-04-15T21:18:23.536Z,7.07
2023-04-15T21:21:00.985Z,7.13
2023-04-15T21:23:29.661Z,7.09
2023-04-15T21:25:57.265Z,7.12
2023-04-15T21:28:23.985Z,7.11
2023-04-15T21:30:50.808Z,7.06
2023-04-15T21:33:20.379Z,7.12
2023-04-15T21:35:46.911Z,7.10
2023-04-15T21:38:13.626Z,7.11
2023-04-15T21:40:40.886Z,7.06
2023-04-15T21:43:08.138Z,7.16
2023-04-15T21:45:35.744Z,7.23
2023-04-15T21:48:07.668Z,7.16
2023-04-15T21:50:38.782Z,7.19
2023-04-15T21:53:08.342Z,7.17
2023-04-15T21:55:35.813Z,7.13
2023-04-15T21:58:02.306Z,7.21
2023-04-15T22:00:29.229Z,7.24
2023-04-15T22:02:55.885Z,7.19
2023-04-15T22:05:22.578Z,7.31
2023-04-15T22:07:49.160Z,7.24
2023-04-15T22:10:15.885Z,7.21
2023-04-15T22:12:42.497Z,7.22
2023-04-15T22:15:09.337Z,7.26
2023-04-15T22:17:35.990Z,7.23
2023-04-15T22:20:02.848Z,7.11
2023-04-15T22:22:44.090Z,7.16
2023-04-15T22:25:11.651Z,7.22
2023-04-15T22:27:38.235Z,7.35
2023-04-15T22:30:05.411Z,7.27
2023-04-15T22:32:31.988Z,7.20
2023-04-15T22:34:58.521Z,7.27
2023-04-15T22:37:30.610Z,7.23
2023-04-15T22:39:57.603Z,7.20
2023-04-15T22:42:24.333Z,7.09
2023-04-15T22:44:51.474Z,7.05
2023-04-15T22:47:18.988Z,7.02
2023-04-15T22:49:45.729Z,6.93
2023-04-15T22:52:17.190Z,7.04
2023-04-15T22:54:50.290Z,6.99
2023-04-15T22:57:16.773Z,7.03
2023-04-15T22:59:43.299Z,7.03
2023-04-15T23:02:09.949Z,6.80
2023-04-15T23:04:36.693Z,6.90
2023-04-15T23:07:03.619Z,7.06
2023-04-15T23:09:30.750Z,7.00
2023-04-15T23:11:57.381Z,6.94
2023-04-15T23:14:23.951Z,6.93
2023-04-15T23:16:50.463Z,6.86
2023-04-15T23:19:17.003Z,6.86
2023-04-15T23:21:43.578Z,6.93
2023-04-15T23:24:10.119Z,7.00
2023-04-15T23:26:36.674Z,6.86
2023-04-15T23:29:03.207Z,6.81
2023-04-15T23:31:29.932Z,6.87
2023-04-15T23:33:56.465Z,6.90
2023-04-15T23:36:23.067Z,6.86
2023-04-15T23:38:49.560Z,6.89
2023-04-15T23:41:16.454Z,6.92
2023-04-15T23:43:43.000Z,6.90
2023-04-15T23:46:09.589Z,6.82
2023-04-15T23:48:36.118Z,6.83
2023-04-15T23:51:02.692Z,6.79
2023-04-15T23:53:30.009Z,6.73
2023-04-15T23:55:56.916Z,6.70
2023-04-15T23:58:23.727Z,6.82
